x

Port Aransas, Tx (ptat2) Weather Station

5:00pm - Fri 23rd Jun 2017 All times are CDT. -5 hours from GMT.

  • Wind
    21mph, 23mph gusts
  • Sea Temp 87°f
  • Air Temp 85°f
  • Sea Pressure 1008.8mb
  • Port Aransas, Tx
  • Port Aransas, Tx

More Historic Weather Station data

Upgrade to MSW Pro to gain access to the past 30 days of data for over 8000 Wavebouys and Weather Stations around the globe.

Join Pro

Comparision Forecast

View Surf forecast
   
Fri 06/23 5:00pm 21 23 mph 1008.8mb 87f 85f
4:00pm 18 22 mph 1009.2mb 86f 85f
3:00pm 20 21 mph 1009.6mb 86f 85f
2:00pm 21 23 mph 1009.4mb 86f 85f
1:00pm 21 22 mph 1009.8mb 85f 85f
12:00pm 17 20 mph 1009.6mb 85f 85f
11:00am 18 21 mph 1008.8mb 85f 84f
10:00am 21 24 mph 1008.7mb 84f 84f
9:00am 22 24 mph 1008.5mb 84f 84f
8:00am 24 26 mph 1008.2mb 84f 84f
7:00am 24 26 mph 1007.5mb 84f 84f
6:00am 25 28 mph 1006.8mb 84f 83f
5:00am 23 26 mph 1006.6mb 85f 84f
4:00am 26 29 mph 1006.3mb 85f 84f
3:00am 26 30 mph 1006.2mb 85f 84f
2:00am 26 30 mph 1006.4mb 85f 84f
1:00am 25 29 mph 1006.1mb 85f 84f
12:00am 25 28 mph 1005.8mb 85f 84f
Thu 06/22 11:00pm 29 31 mph 1005.5mb 86f 84f
10:00pm 25 28 mph 1004.9mb 86f 84f
9:00pm 26 29 mph 1004.4mb 86f 84f
8:00pm 25 29 mph 1004.5mb 87f 85f
7:00pm 23 24 mph 1004.5mb 87f 85f
6:00pm 20 22 mph 1004.7mb 87f 85f
5:00pm 22 25 mph 1004.9mb 87f 85f
4:00pm 20 21 mph 1005.4mb 86f 85f
3:00pm 20 22 mph 1006.1mb 86f 85f
2:00pm 15 17 mph 1006.5mb 86f 84f
1:00pm 11 13 mph 1006.9mb 85f 85f
12:00pm 7 8 mph 1007.1mb 84f 84f
11:00am 6 6 mph 1006.8mb 84f 84f
10:00am 6 6 mph 1007.2mb 84f 84f
9:00am 8 9 mph 1006.6mb 84f 81f
8:00am 5 6 mph 1006.2mb 84f 80f
7:00am 6 7 mph 1005.7mb 85f 80f
6:00am 7 8 mph 1005.4mb 85f 81f
5:00am 6 7 mph 1005.1mb 85f 83f
4:00am 9 10 mph 1004.7mb 85f 83f
3:00am 7 8 mph 1004.6mb 85f 84f
2:00am  -  1 mph 1004.9mb 85f 84f
1:00am 8 8 mph 1005.2mb 85f 84f
12:00am 10 11 mph 1005.3mb 85f 85f
Wed 06/21 11:00pm 13 14 mph 1005mb 85f 85f
10:00pm 13 15 mph 1004.4mb 85f 86f
9:00pm 15 16 mph 1004mb 85f 87f
8:00pm 22 25 mph 1003.7mb 86f 89f
7:00pm 16 18 mph 1003.2mb 86f 94f
6:00pm 17 23 mph 1002.9mb 86f 94f
5:00pm 14 17 mph 1003.8mb 86f 93f
4:00pm 17 20 mph 1004.6mb 86f 93f
3:00pm 16 21 mph 1005.8mb 85f 92f
2:00pm 20 23 mph 1006.4mb 85f 91f
1:00pm 16 20 mph 1007.2mb 85f 90f
12:00pm 17 20 mph 1008.1mb 85f 87f
11:00am 16 20 mph 1008.4mb 85f 85f
10:00am 14 18 mph 1008.7mb 85f 83f
9:00am 17 20 mph 1008.8mb 85f 81f
8:00am 13 15 mph 1008.9mb 85f 80f
7:00am 14 17 mph 1008.5mb 85f 80f
6:00am 11 15 mph 1008.5mb 85f 80f
5:00am 8 13 mph 1008.6mb 85f 81f
4:00am 7 10 mph 1009.1mb 85f 82f
3:00am 9 11 mph 1009.5mb 85f 83f
2:00am 15 17 mph 1010mb 85f 84f
1:00am 14 15 mph 1010.3mb 85f 85f
12:00am 13 15 mph 1010.4mb 85f 85f
Tue 06/20 11:00pm 14 14 mph 1010.3mb 85f 84f
10:00pm 14 15 mph 1010mb 85f 84f
9:00pm 14 15 mph 1009.9mb 85f 84f
8:00pm 17 20 mph 1009.6mb 86f 85f
7:00pm 13 15 mph 1009.4mb 86f 84f
6:00pm 15 16 mph 1009.4mb 87f 85f
5:00pm 6 7 mph 1009.9mb 88f 85f
4:00pm 5 6 mph 1010.7mb 87f 85f
3:00pm 8 9 mph 1011.4mb 86f 84f
2:00pm 7 8 mph 1012.2mb 86f 85f
1:00pm 6 7 mph 1013mb 85f 86f
12:00pm 10 11 mph 1013.5mb 85f 86f
11:00am 10 11 mph 1013.7mb 85f 85f
10:00am 11 14 mph 1013.6mb 85f 83f
9:00am 10 11 mph 1013mb 85f 82f
8:00am 10 13 mph 1012.4mb 85f 81f
7:00am 6 8 mph 1011.9mb 85f 80f
6:00am 5 6 mph 1012mb 85f 81f
5:00am 5 5 mph 1011.9mb 85f 81f
4:00am 6 6 mph 1012.1mb 85f 82f
3:00am 6 7 mph 1012.2mb 85f 82f
2:00am 9 10 mph 1012.6mb 85f 82f
1:00am 11 13 mph 1013.4mb 85f 83f
12:00am 8 8 mph 1013.6mb 86f 83f